De Leon, Texas
Current Conditions -  °F | °C
As of 12:55 AM on Tuesday 21 Oct 2014 (Local Time) from KMKN Reporting Station
Clear Clear  
Wind Chill: 62°   Ceiling: Unl
Heat Index: 62°   Visibility: 10mi
Dew Point: 58°   Wind: 6mph
Humidity: 85%   Direction: 200°SSW
Pressure: 30.06"   Gusts: NA
Location:  32.11°N, 98.54°W
Report Text: KMKN 210555Z AUTO 20005KT 10SM CLR 17/14 A3006 RMK AO2 T01680143 10232 20168 402740137
Loading
Personal Weather Stations






























Interactive Weather Map
Tropical Storm Tracking
New forecast layout! Learn more

10-Day Weather Forecast

Advertisements
Track Severe Weather on mobile